Latest Weather Observations for Brewon

IDN60801

Issued at 5:13 am EST Wednesday 18 September 2019 (issued every 10 minutes, with the page automatically refreshed every 10 minutes)

About weather observations | Map of weather stations | Latest weather observations for NSW | Other Formats
Station Details ID: 051162 Name: BREWON AWS Lat: -30.24 Lon: 147.53 Height: 130.0 m
Data from the previous 72 hours. | See also: Recent months at Brewon
Date/Time
EST
Temp
°C
App
Temp
°C
Dew
Point
°C
Rel
Hum
%
Delta-T
°C
Wind Press
QNH
hPa
Press
MSL
hPa
Rain since
9am
mm
Dir  Spd
km/h
Gust
km/h
Spd
kts
Gust
kts
18/05:00am 8.2 - 5.8 85 1.1 - - - - - - - 0.0
18/04:30am 8.2 - 5.7 84 1.1 - - - - - - - 0.0
18/04:00am 8.6 - 6.1 84 1.2 - - - - - - - 0.0
18/03:30am 8.7 - 5.8 82 1.3 - - - - - - - 0.0
18/03:00am 9.3 - 6.2 81 1.4 - - - - - - - 0.0
18/02:30am 8.7 - 5.6 81 1.4 - - - - - - - 0.0
18/02:00am 9.2 - 5.6 78 1.6 - - - - - - - 0.0
18/01:30am 9.7 - 5.9 77 1.8 - - - - - - - 0.0
18/01:00am 10.1 - 5.9 75 1.9 - - - - - - - 0.0
18/12:30am 10.4 - 5.8 73 2.1 - - - - - - - 0.0
18/12:00am 10.8 - 6.0 72 2.2 - - - - - - - 0.0
 
Date/Time
EST
Temp
°C
App
Temp
°C
Dew
Point
°C
Rel
Hum
%
Delta-T
°C
Wind Press
QNH
hPa
Press
MSL
hPa
Rain since
9am
mm
Dir  Spd
km/h
Gust
km/h
Spd
kts
Gust
kts
17/11:30pm 10.9 - 5.7 70 2.4 - - - - - - - 0.0
17/11:00pm 11.2 - 5.3 67 2.7 - - - - - - - 0.0
17/10:30pm 11.5 - 4.9 64 3.0 - - - - - - - 0.0
17/10:00pm 11.2 - 4.2 62 3.2 - - - - - - - 0.0
17/09:30pm 11.1 - 3.6 60 3.3 - - - - - - - 0.0
17/09:00pm 11.3 - 3.1 57 3.6 - - - - - - - 0.0
17/08:30pm 11.9 - 3.2 55 3.9 - - - - - - - 0.0
17/08:00pm 12.5 - 3.5 54 4.0 - - - - - - - 0.0
17/07:30pm 13.0 - 1.7 46 4.9 - - - - - - - 0.0
17/07:00pm 13.4 - 1.1 43 5.3 - - - - - - - 0.0
17/06:30pm 13.9 - 0.2 39 5.8 - - - - - - - 0.0
17/06:00pm 14.5 - 0.0 37 6.1 - - - - - - - 0.0
17/05:30pm 15.4 - 1.5 39 6.1 - - - - - - - 0.0
17/05:00pm 16.6 - 2.2 38 6.5 - - - - - - - 0.0
17/04:30pm 17.1 - 1.9 36 6.9 - - - - - - - 0.0
17/04:00pm 17.6 - 2.4 36 7.0 - - - - - - - 0.0
17/03:30pm 17.7 - 2.5 36 7.0 - - - - - - - 0.0
17/03:00pm 18.4 - 3.8 38 6.9 - - - - - - - 0.0
17/02:30pm 17.8 - 4.0 40 6.5 - - - - - - - 0.0
17/02:00pm 17.1 - 5.1 45 5.8 - - - - - - - 0.0
17/01:30pm 16.7 - 6.2 50 5.2 - - - - - - - 0.0
17/01:00pm 15.6 - 7.6 59 4.0 - - - - - - - 0.0
17/12:30pm 15.0 - 8.5 65 3.3 - - - - - - - 0.0
17/12:00pm 12.9 - 9.4 79 1.8 - - - - - - - 0.0
17/11:30am 14.0 - 8.6 70 2.7 - - - - - - - 0.0
17/11:00am 15.2 - 8.9 66 3.2 - - - - - - - 0.0
17/10:30am 15.6 - 9.3 66 3.3 - - - - - - - 0.0
17/10:00am 16.6 - 6.7 52 4.9 - - - - - - - 0.0
17/09:30am 17.2 - 6.7 50 5.2 - - - - - - - 0.0
17/09:00am 18.0 - 6.2 46 5.8 - - - - - - - 0.0
17/08:30am 17.4 - 6.0 47 5.6 - - - - - - - 0.0
17/08:00am 17.8 - 5.7 45 5.9 - - - - - - - 0.0
17/07:30am 16.9 - 5.5 47 5.5 - - - - - - - 0.0
17/07:00am 16.3 - 5.3 48 5.3 - - - - - - - 0.0
17/06:30am 16.2 - 5.2 48 5.3 - - - - - - - 0.0
17/06:00am 16.3 - 5.0 47 5.4 - - - - - - - 0.0
17/05:30am 16.5 - 4.9 46 5.5 - - - - - - - 0.0
17/05:00am 16.5 - 4.9 46 5.5 - - - - - - - 0.0
17/04:30am 16.7 - 4.7 45 5.7 - - - - - - - 0.0
17/04:00am 16.9 - 4.9 45 5.7 - - - - - - - 0.0
17/03:30am 17.2 - 4.9 44 5.9 - - - - - - - 0.0
17/03:00am 17.8 - 4.7 42 6.3 - - - - - - - 0.0
17/02:30am 18.8 - 4.9 40 6.8 - - - - - - - 0.0
17/02:00am 20.5 - 5.7 38 7.4 - - - - - - - 0.0
17/01:30am 21.4 - 4.5 33 8.3 - - - - - - - 0.0
17/01:00am 21.8 - 4.4 32 8.5 - - - - - - - 0.0
17/12:30am 22.1 - 4.2 31 8.8 - - - - - - - 0.0
17/12:00am 22.3 - 2.9 28 9.3 - - - - - - - 0.0
 
Date/Time
EST
Temp
°C
App
Temp
°C
Dew
Point
°C
Rel
Hum
%
Delta-T
°C
Wind Press
QNH
hPa
Press
MSL
hPa
Rain since
9am
mm
Dir  Spd
km/h
Gust
km/h
Spd
kts
Gust
kts
16/11:30pm 22.7 - 2.2 26 9.7 - - - - - - - 0.0
16/11:00pm 23.4 - 1.7 24 10.2 - - - - - - - 0.0
16/10:30pm 23.4 - -1.5 19 11.1 - - - - - - - 0.0
16/10:18pm 22.6 - -4.5 16 11.3 - - - - - - - 0.0
16/10:00pm 17.5 - -11.2 13 9.9 - - - - - - - 0.0
16/09:30pm 17.5 - -12.2 12 10.0 - - - - - - - 0.0
16/09:00pm 17.7 - -13.1 11 10.2 - - - - - - - 0.0
16/08:30pm 19.1 - -9.9 13 10.5 - - - - - - - 0.0
16/08:00pm 20.6 - -12.0 10 11.5 - - - - - - - 0.0
16/07:30pm 21.4 - -12.7 9 11.9 - - - - - - - 0.0
16/07:00pm 23.0 - -13.0 8 12.8 - - - - - - - 0.0
16/06:30pm 26.8 - -13.7 6 14.8 - - - - - - - 0.0
16/06:00pm 28.3 - -12.7 6 15.5 - - - - - - - 0.0
16/05:30pm 30.0 - -13.7 5 16.6 - - - - - - - 0.0
16/05:00pm 30.8 - -13.1 5 16.9 - - - - - - - 0.0
16/04:30pm 31.4 - -12.7 5 17.2 - - - - - - - 0.0
16/04:00pm 31.5 - -12.6 5 17.3 - - - - - - - 0.0
16/03:30pm 31.6 - -12.6 5 17.3 - - - - - - - 0.0
16/03:00pm 31.3 - -12.8 5 17.2 - - - - - - - 0.0
16/02:30pm 31.5 - -12.6 5 17.3 - - - - - - - 0.0
16/02:00pm 31.1 - -12.9 5 17.1 - - - - - - - 0.0
16/01:30pm 31.5 - -12.6 5 17.3 - - - - - - - 0.0
16/01:00pm 30.7 - -13.2 5 16.9 - - - - - - - 0.0
16/12:30pm 30.7 - -13.2 5 16.9 - - - - - - - 0.0
16/12:00pm 30.1 - -16.3 4 16.8 - - - - - - - 0.0
16/11:30am 29.5 - -14.0 5 16.3 - - - - - - - 0.0
16/11:00am 28.9 - -14.5 5 16.0 - - - - - - - 0.0
16/10:30am 28.2 - -12.7 6 15.5 - - - - - - - 0.0
16/10:00am 26.7 - -13.8 6 14.8 - - - - - - - 0.0
16/09:30am 25.3 - -12.9 7 14.0 - - - - - - - 0.0
16/09:00am 23.0 - -13.0 8 12.8 - - - - - - - 0.0
16/08:30am 20.8 - -11.9 10 11.6 - - - - - - - 0.0
16/08:00am 17.9 - -12.9 11 10.3 - - - - - - - 0.0
16/07:52am 17.0 - -11.6 13 9.7 - - - - - - - 0.0
16/07:30am 11.9 - -11.6 18 7.4 - - - - - - - 0.0
16/07:00am 6.9 - -15.1 19 5.9 - - - - - - - 0.0
16/06:30am 5.6 - -15.0 21 5.4 - - - - - - - 0.0
16/06:00am 5.4 - -15.7 20 5.8 - - - - - - - 0.0
16/05:30am 4.5 - -19.1 16 5.8 - - - - - - - 0.0
16/05:00am 6.4 - -13.7 22 5.6 - - - - - - - 0.0
16/04:30am 7.1 - -12.6 23 5.7 - - - - - - - 0.0
16/04:00am 6.5 - -13.1 23 5.5 - - - - - - - 0.0
16/03:30am 5.7 - -14.3 22 5.4 - - - - - - - 0.0
16/03:00am 6.2 - -13.4 23 5.4 - - - - - - - 0.0
16/02:30am 7.0 - -12.7 23 5.6 - - - - - - - 0.0
16/02:00am 7.6 - -11.6 24 5.7 - - - - - - - 0.0
16/01:30am 7.7 - -12.6 22 5.9 - - - - - - - 0.0
16/01:00am 7.9 - -14.3 19 6.2 - - - - - - - 0.0
16/12:30am 8.8 - -12.9 20 6.4 - - - - - - - 0.0
16/12:00am 9.4 - -12.4 20 6.5 - - - - - - - 0.0
 
Date/Time
EST
Temp
°C
App
Temp
°C
Dew
Point
°C
Rel
Hum
%
Delta-T
°C
Wind Press
QNH
hPa
Press
MSL
hPa
Rain since
9am
mm
Dir  Spd
km/h
Gust
km/h
Spd
kts
Gust
kts
15/11:30pm 10.1 - -12.4 19 6.8 - - - - - - - 0.0
15/11:00pm 11.0 - -13.8 16 7.4 - - - - - - - 0.0
15/10:30pm 11.9 - -9.7 21 7.1 - - - - - - - 0.0
15/10:00pm 13.1 - -14.7 13 8.4 - - - - - - - 0.0
15/09:30pm 14.5 - -16.7 10 9.2 - - - - - - - 0.0
15/09:00pm 14.9 - -15.3 11 9.2 - - - - - - - 0.0
15/08:30pm 15.9 - -14.5 11 9.6 - - - - - - - 0.0
15/08:00pm 17.5 - -13.2 11 10.1 - - - - - - - 0.0
15/07:30pm 18.5 - -13.6 10 10.6 - - - - - - - 0.0
15/07:00pm 20.3 - -12.3 10 11.4 - - - - - - - 0.0
15/06:30pm 22.9 - -14.7 7 12.9 - - - - - - - 0.0
15/06:00pm 26.4 - -16.2 5 14.8 - - - - - - - 0.0
15/05:30pm 27.7 - -15.3 5 15.5 - - - - - - - 0.0
15/05:00pm 28.2 - -15.0 5 15.7 - - - - - - - 0.0
15/04:30pm 28.8 - -14.5 5 16.0 - - - - - - - 0.0
15/04:00pm 28.9 - -14.5 5 16.0 - - - - - - - 0.0
15/03:30pm 28.9 - -14.5 5 16.0 - - - - - - - 0.0
15/03:00pm 28.6 - -14.7 5 15.9 - - - - - - - 0.0
15/02:30pm 28.6 - -14.7 5 15.9 - - - - - - - 0.0
15/02:00pm 28.5 - -14.7 5 15.8 - - - - - - - 0.0
15/01:30pm 27.9 - -15.2 5 15.6 - - - - - - - 0.0
15/01:00pm 27.6 - -13.2 6 15.2 - - - - - - - 0.0
15/12:30pm 26.9 - -13.7 6 14.9 - - - - - - - 0.0
15/12:00pm 26.6 - -12.0 7 14.5 - - - - - - - 0.0
15/11:30am 25.1 - -10.0 9 13.5 - - - - - - - 0.0
15/11:00am 23.9 - -10.9 9 13.0 - - - - - - - 0.0
15/10:30am 23.3 - -7.7 12 12.2 - - - - - - - 0.0
15/10:00am 22.3 - -6.5 14 11.5 - - - - - - - 0.0
15/09:30am 21.1 - -5.7 16 10.7 - - - - - - - 0.0
15/09:00am 19.2 - -5.7 18 9.8 - - - - - - - 0.0
15/08:30am 17.3 - -5.2 21 8.8 - - - - - - - 0.0
15/08:00am 13.8 - -4.8 27 7.0 - - - - - - - 0.0
15/07:30am 10.3 - -6.1 31 5.8 - - - - - - - 0.0
15/07:00am 5.9 - -9.9 31 4.8 - - - - - - - 0.0
15/06:30am 4.3 - -10.1 34 4.2 - - - - - - - 0.0
15/06:00am 4.6 - -9.5 35 4.2 - - - - - - - 0.0
15/05:30am 5.6 - -7.9 37 4.3 - - - - - - - 0.0

Other formats

Comma delimited format used in spreadsheet applications
http://www.bom.gov.au/fwo/IDN60801/IDN60801.94793.axf

JavaScript Object Notation format (JSON) in row-major order
http://www.bom.gov.au/fwo/IDN60801/IDN60801.94793.json

Data quality

Most of these data are generated automatically and are frequently updated. Quality checks on data are not normally performed. It is possible for incorrect values to appear. Refer to information at About Latest Weather Observations and please check the disclaimer before using these data.